Time,TemperatureF,DewpointF,PressureIn,WindDirection,WindDirectionDegrees,WindSpeedMPH,WindSpeedGustMPH,Humidity,HourlyPrecipIn,Conditions,Clouds,dailyrainin,SoftwareType,DateUTC
2013-06-06 00:02:00,53.0,49.0,-100.00,North,-999,-999.0,-999.0,87,0.00,,,0.00,,2013-06-06 07:02:00,
2013-06-06 00:12:00,53.0,49.0,-100.00,North,-999,-999.0,-999.0,87,0.00,,,0.00,,2013-06-06 07:12:00,
2013-06-06 00:22:00,53.0,49.0,-100.00,North,-999,-999.0,-999.0,87,0.00,,,0.00,,2013-06-06 07:22:00,
2013-06-06 00:32:00,53.0,49.0,-100.00,North,-999,-999.0,-999.0,87,0.00,,,0.00,,2013-06-06 07:32:00,
2013-06-06 00:42:00,53.0,49.0,-100.00,North,-999,-999.0,-999.0,87,0.00,,,0.00,,2013-06-06 07:42:00,
2013-06-06 01:02:00,53.0,49.0,-100.00,North,-999,-999.0,-999.0,88,0.00,,,0.00,,2013-06-06 08:02:00,
2013-06-06 01:12:00,53.0,49.0,-100.00,North,-999,-999.0,-999.0,88,0.00,,,0.00,,2013-06-06 08:12:00,
2013-06-06 01:22:00,53.0,49.0,-100.00,North,-999,-999.0,-999.0,88,0.00,,,0.00,,2013-06-06 08:22:00,
2013-06-06 01:32:00,53.0,49.0,-100.00,North,-999,-999.0,-999.0,88,0.00,,,0.00,,2013-06-06 08:32:00,
2013-06-06 01:42:00,53.0,49.0,-100.00,North,-999,-999.0,-999.0,88,0.00,,,0.00,,2013-06-06 08:42:00,
2013-06-06 01:43:00,52.0,49.0,-100.00,North,-999,-999.0,-999.0,88,0.00,,,0.00,,2013-06-06 08:43:00,
2013-06-06 02:02:00,52.0,49.0,-100.00,North,-999,-999.0,-999.0,88,0.00,,,0.00,,2013-06-06 09:02:00,
2013-06-06 02:12:00,52.0,49.0,-100.00,North,-999,-999.0,-999.0,88,0.00,,,0.00,,2013-06-06 09:12:00,
2013-06-06 02:22:00,52.0,49.0,-100.00,North,-999,-999.0,-999.0,88,0.00,,,0.00,,2013-06-06 09:22:00,
2013-06-06 02:33:00,52.0,49.0,-100.00,North,-999,-999.0,-999.0,88,0.00,,,0.00,,2013-06-06 09:33:00,
2013-06-06 03:03:00,52.0,49.0,-100.00,North,-999,-999.0,-999.0,89,0.00,,,0.00,,2013-06-06 10:03:00,
2013-06-06 03:12:00,52.0,49.0,-100.00,North,-999,-999.0,-999.0,89,0.00,,,0.00,,2013-06-06 10:12:00,
2013-06-06 03:22:00,52.0,49.0,-100.00,North,-999,-999.0,-999.0,89,0.00,,,0.00,,2013-06-06 10:22:00,
2013-06-06 03:33:00,52.0,49.0,-100.00,North,-999,-999.0,-999.0,89,0.00,,,0.00,,2013-06-06 10:33:00,
2013-06-06 03:42:00,52.0,49.0,-100.00,North,-999,-999.0,-999.0,89,0.00,,,0.00,,2013-06-06 10:42:00,
2013-06-06 04:02:00,52.0,49.0,-100.00,North,-999,-999.0,-999.0,91,0.00,,,-99.99,,2013-06-06 11:02:00,
2013-06-06 04:12:00,52.0,49.0,-100.00,North,-999,-999.0,-999.0,91,0.00,,,-99.99,,2013-06-06 11:12:00,
2013-06-06 04:22:00,52.0,49.0,-100.00,North,-999,-999.0,-999.0,91,0.00,,,-99.99,,2013-06-06 11:22:00,
2013-06-06 04:32:00,52.0,49.0,-100.00,North,-999,-999.0,-999.0,91,0.00,,,-99.99,,2013-06-06 11:32:00,
2013-06-06 04:42:00,52.0,49.0,-100.00,North,-999,-999.0,-999.0,91,0.00,,,-99.99,,2013-06-06 11:42:00,
2013-06-06 05:02:00,52.0,49.0,-100.00,North,-999,-999.0,-999.0,92,0.00,,,0.00,,2013-06-06 12:02:00,
2013-06-06 05:12:00,52.0,49.0,-100.00,North,-999,-999.0,-999.0,92,0.00,,,0.00,,2013-06-06 12:12:00,
2013-06-06 05:22:00,52.0,49.0,-100.00,North,-999,-999.0,-999.0,92,0.00,,,0.00,,2013-06-06 12:22:00,
2013-06-06 05:32:00,52.0,49.0,-100.00,North,-999,-999.0,-999.0,92,0.00,,,0.00,,2013-06-06 12:32:00,
2013-06-06 05:42:00,52.0,49.0,-100.00,North,-999,-999.0,-999.0,92,0.00,,,0.00,,2013-06-06 12:42:00,
2013-06-06 06:03:00,52.0,50.0,-100.00,North,-999,-999.0,-999.0,93,0.00,,,0.00,,2013-06-06 13:03:00,
2013-06-06 06:12:00,52.0,50.0,-100.00,North,-999,-999.0,-999.0,93,0.00,,,0.00,,2013-06-06 13:12:00,
2013-06-06 06:22:00,52.0,50.0,-100.00,North,-999,-999.0,-999.0,93,0.00,,,0.00,,2013-06-06 13:22:00,
2013-06-06 06:32:00,52.0,50.0,-100.00,North,-999,-999.0,-999.0,93,0.00,,,0.00,,2013-06-06 13:32:00,
2013-06-06 06:42:00,52.0,50.0,-100.00,North,-999,-999.0,-999.0,93,0.00,,,0.00,,2013-06-06 13:42:00,
2013-06-06 07:03:00,52.0,50.0,-100.00,North,-999,-999.0,-999.0,93,0.00,,,0.00,,2013-06-06 14:03:00,
2013-06-06 07:12:00,52.0,50.0,-100.00,North,-999,-999.0,-999.0,93,0.00,,,0.00,,2013-06-06 14:12:00,
2013-06-06 07:22:00,52.0,50.0,-100.00,North,-999,-999.0,-999.0,93,0.00,,,0.00,,2013-06-06 14:22:00,
2013-06-06 07:32:00,52.0,50.0,-100.00,North,-999,-999.0,-999.0,93,0.00,,,0.00,,2013-06-06 14:32:00,
2013-06-06 07:42:00,52.0,50.0,-100.00,North,-999,-999.0,-999.0,93,0.00,,,0.00,,2013-06-06 14:42:00,
2013-06-06 07:43:00,53.0,51.0,-100.00,North,-999,-999.0,-999.0,92,0.00,,,0.00,,2013-06-06 14:43:00,
2013-06-06 08:03:00,53.0,51.0,-100.00,North,-999,-999.0,-999.0,92,0.00,,,0.00,,2013-06-06 15:03:00,
2013-06-06 08:12:00,53.0,51.0,-100.00,North,-999,-999.0,-999.0,92,0.00,,,0.00,,2013-06-06 15:12:00,
2013-06-06 08:22:00,53.0,51.0,-100.00,North,-999,-999.0,-999.0,92,0.00,,,0.00,,2013-06-06 15:22:00,
2013-06-06 08:32:00,53.0,51.0,-100.00,North,-999,-999.0,-999.0,92,0.00,,,0.00,,2013-06-06 15:32:00,
2013-06-06 08:43:00,54.0,49.0,-100.00,North,-999,-999.0,-999.0,83,0.00,,,0.00,,2013-06-06 15:43:00,
2013-06-06 09:12:00,54.0,49.0,-100.00,North,-999,-999.0,-999.0,83,0.00,,,0.00,,2013-06-06 16:12:00,
2013-06-06 09:22:00,54.0,49.0,-100.00,North,-999,-999.0,-999.0,83,0.00,,,0.00,,2013-06-06 16:22:00,
2013-06-06 09:33:00,54.0,49.0,-100.00,North,-999,-999.0,-999.0,83,0.00,,,0.00,,2013-06-06 16:33:00,
2013-06-06 10:03:00,56.0,49.0,-100.00,North,-999,-999.0,-999.0,77,0.00,,,0.00,,2013-06-06 17:03:00,
2013-06-06 10:13:00,56.0,49.0,-100.00,North,-999,-999.0,-999.0,77,0.00,,,0.00,,2013-06-06 17:13:00,
2013-06-06 10:22:00,56.0,49.0,-100.00,North,-999,-999.0,-999.0,77,0.00,,,0.00,,2013-06-06 17:22:00,
2013-06-06 10:32:00,56.0,49.0,-100.00,North,-999,-999.0,-999.0,77,0.00,,,0.00,,2013-06-06 17:32:00,
2013-06-06 10:42:00,56.0,49.0,-100.00,North,-999,-999.0,-999.0,77,0.00,,,0.00,,2013-06-06 17:42:00,
2013-06-06 11:03:00,59.0,48.0,-100.00,North,-999,-999.0,-999.0,67,0.00,,,0.00,,2013-06-06 18:03:00,
2013-06-06 11:12:00,59.0,48.0,-100.00,North,-999,-999.0,-999.0,67,0.00,,,0.00,,2013-06-06 18:12:00,
2013-06-06 11:22:00,59.0,48.0,-100.00,North,-999,-999.0,-999.0,67,0.00,,,0.00,,2013-06-06 18:22:00,
2013-06-06 11:33:00,59.0,48.0,-100.00,North,-999,-999.0,-999.0,67,0.00,,,0.00,,2013-06-06 18:33:00,
2013-06-06 11:42:00,59.0,48.0,-100.00,North,-999,-999.0,-999.0,67,0.00,,,0.00,,2013-06-06 18:42:00,
2013-06-06 12:03:00,59.0,49.0,-100.00,North,-999,-999.0,-999.0,70,0.00,,,0.00,,2013-06-06 19:03:00,
2013-06-06 12:12:00,59.0,49.0,-100.00,North,-999,-999.0,-999.0,70,0.00,,,0.00,,2013-06-06 19:12:00,
2013-06-06 12:23:00,59.0,49.0,-100.00,North,-999,-999.0,-999.0,70,0.00,,,0.00,,2013-06-06 19:23:00,
2013-06-06 12:33:00,59.0,49.0,-100.00,North,-999,-999.0,-999.0,70,0.00,,,0.00,,2013-06-06 19:33:00,
2013-06-06 12:42:00,59.0,49.0,-100.00,North,-999,-999.0,-999.0,70,0.00,,,0.00,,2013-06-06 19:42:00,
2013-06-06 13:03:00,61.0,50.0,-100.00,North,-999,-999.0,-999.0,68,0.00,,,0.00,,2013-06-06 20:03:00,
2013-06-06 13:13:00,61.0,50.0,-100.00,North,-999,-999.0,-999.0,68,0.00,,,0.00,,2013-06-06 20:13:00,
2013-06-06 13:22:00,61.0,50.0,-100.00,North,-999,-999.0,-999.0,68,0.00,,,0.00,,2013-06-06 20:22:00,
2013-06-06 13:33:00,61.0,50.0,-100.00,North,-999,-999.0,-999.0,68,0.00,,,0.00,,2013-06-06 20:33:00,
2013-06-06 13:42:00,61.0,50.0,-100.00,North,-999,-999.0,-999.0,68,0.00,,,0.00,,2013-06-06 20:42:00,
2013-06-06 13:43:00,59.0,50.0,-100.00,North,-999,-999.0,-999.0,71,0.00,,,0.00,,2013-06-06 20:43:00,
2013-06-06 14:03:00,59.0,50.0,-100.00,North,-999,-999.0,-999.0,71,0.00,,,0.00,,2013-06-06 21:03:00,
2013-06-06 14:12:00,59.0,50.0,-100.00,North,-999,-999.0,-999.0,71,0.00,,,0.00,,2013-06-06 21:12:00,
2013-06-06 14:22:00,59.0,50.0,-100.00,North,-999,-999.0,-999.0,71,0.00,,,0.00,,2013-06-06 21:22:00,
2013-06-06 14:33:00,59.0,50.0,-100.00,North,-999,-999.0,-999.0,71,0.00,,,0.00,,2013-06-06 21:33:00,
2013-06-06 14:43:00,60.0,49.0,-100.00,North,-999,-999.0,-999.0,68,0.00,,,0.00,,2013-06-06 21:43:00,
2013-06-06 15:02:00,60.0,49.0,-100.00,North,-999,-999.0,-999.0,68,0.00,,,0.00,,2013-06-06 22:02:00,
2013-06-06 15:13:00,60.0,49.0,-100.00,North,-999,-999.0,-999.0,68,0.00,,,0.00,,2013-06-06 22:13:00,
2013-06-06 15:23:00,60.0,49.0,-100.00,North,-999,-999.0,-999.0,68,0.00,,,0.00,,2013-06-06 22:23:00,
2013-06-06 15:33:00,60.0,49.0,-100.00,North,-999,-999.0,-999.0,68,0.00,,,0.00,,2013-06-06 22:33:00,
2013-06-06 16:02:00,60.0,49.0,-100.00,North,-999,-999.0,-999.0,68,0.00,,,0.00,,2013-06-06 23:02:00,
2013-06-06 16:12:00,60.0,49.0,-100.00,North,-999,-999.0,-999.0,68,0.00,,,0.00,,2013-06-06 23:12:00,
2013-06-06 16:22:00,60.0,49.0,-100.00,North,-999,-999.0,-999.0,68,0.00,,,0.00,,2013-06-06 23:22:00,
2013-06-06 16:33:00,60.0,49.0,-100.00,North,-999,-999.0,-999.0,68,0.00,,,0.00,,2013-06-06 23:33:00,
2013-06-06 16:42:00,60.0,49.0,-100.00,North,-999,-999.0,-999.0,68,0.00,,,0.00,,2013-06-06 23:42:00,
2013-06-06 17:02:00,59.0,49.0,-100.00,North,-999,-999.0,-999.0,71,0.00,,,0.00,,2013-06-07 00:02:00,
2013-06-06 17:12:00,59.0,49.0,-100.00,North,-999,-999.0,-999.0,71,0.00,,,0.00,,2013-06-07 00:12:00,
2013-06-06 17:22:00,59.0,49.0,-100.00,North,-999,-999.0,-999.0,71,0.00,,,0.00,,2013-06-07 00:22:00,
2013-06-06 17:32:00,59.0,49.0,-100.00,North,-999,-999.0,-999.0,71,0.00,,,0.00,,2013-06-07 00:32:00,
2013-06-06 17:42:00,59.0,49.0,-100.00,North,-999,-999.0,-999.0,71,0.00,,,0.00,,2013-06-07 00:42:00,
2013-06-06 18:02:00,57.0,49.0,-100.00,North,-999,-999.0,-999.0,75,0.00,,,0.00,,2013-06-07 01:02:00,
2013-06-06 18:12:00,57.0,49.0,-100.00,North,-999,-999.0,-999.0,75,0.00,,,0.00,,2013-06-07 01:12:00,
2013-06-06 18:22:00,57.0,49.0,-100.00,North,-999,-999.0,-999.0,75,0.00,,,0.00,,2013-06-07 01:22:00,
2013-06-06 18:32:00,57.0,49.0,-100.00,North,-999,-999.0,-999.0,75,0.00,,,0.00,,2013-06-07 01:32:00,
2013-06-06 18:42:00,57.0,49.0,-100.00,North,-999,-999.0,-999.0,75,0.00,,,0.00,,2013-06-07 01:42:00,
2013-06-06 19:02:00,55.0,50.0,-100.00,North,-999,-999.0,-999.0,82,0.00,,,0.00,,2013-06-07 02:02:00,
2013-06-06 19:12:00,55.0,50.0,-100.00,North,-999,-999.0,-999.0,82,0.00,,,0.00,,2013-06-07 02:12:00,
2013-06-06 19:22:00,55.0,50.0,-100.00,North,-999,-999.0,-999.0,82,0.00,,,0.00,,2013-06-07 02:22:00,
2013-06-06 19:32:00,55.0,50.0,-100.00,North,-999,-999.0,-999.0,82,0.00,,,0.00,,2013-06-07 02:32:00,
2013-06-06 19:42:00,55.0,50.0,-100.00,North,-999,-999.0,-999.0,82,0.00,,,0.00,,2013-06-07 02:42:00,
2013-06-06 19:43:00,54.0,50.0,-100.00,North,-999,-999.0,-999.0,86,0.00,,,0.00,,2013-06-07 02:43:00,
2013-06-06 20:02:00,54.0,50.0,-100.00,North,-999,-999.0,-999.0,86,0.00,,,0.00,,2013-06-07 03:02:00,
2013-06-06 20:12:00,54.0,50.0,-100.00,North,-999,-999.0,-999.0,86,0.00,,,0.00,,2013-06-07 03:12:00,
2013-06-06 20:22:00,54.0,50.0,-100.00,North,-999,-999.0,-999.0,86,0.00,,,0.00,,2013-06-07 03:22:00,
2013-06-06 20:33:00,54.0,50.0,-100.00,North,-999,-999.0,-999.0,86,0.00,,,0.00,,2013-06-07 03:33:00,
2013-06-06 21:03:00,54.0,50.0,-100.00,North,-999,-999.0,-999.0,86,0.00,,,0.00,,2013-06-07 04:03:00,
2013-06-06 21:12:00,54.0,50.0,-100.00,North,-999,-999.0,-999.0,86,0.00,,,0.00,,2013-06-07 04:12:00,
2013-06-06 21:22:00,54.0,50.0,-100.00,North,-999,-999.0,-999.0,86,0.00,,,0.00,,2013-06-07 04:22:00,
2013-06-06 21:33:00,54.0,50.0,-100.00,North,-999,-999.0,-999.0,86,0.00,,,0.00,,2013-06-07 04:33:00,
2013-06-06 21:42:00,54.0,50.0,-100.00,North,-999,-999.0,-999.0,86,0.00,,,0.00,,2013-06-07 04:42:00,
2013-06-06 22:03:00,53.0,50.0,-100.00,North,-999,-999.0,-999.0,89,0.00,,,0.00,,2013-06-07 05:03:00,
2013-06-06 22:12:00,53.0,50.0,-100.00,North,-999,-999.0,-999.0,89,0.00,,,0.00,,2013-06-07 05:12:00,
2013-06-06 22:22:00,53.0,50.0,-100.00,North,-999,-999.0,-999.0,89,0.00,,,0.00,,2013-06-07 05:22:00,
2013-06-06 22:32:00,53.0,50.0,-100.00,North,-999,-999.0,-999.0,89,0.00,,,0.00,,2013-06-07 05:32:00,
2013-06-06 22:42:00,53.0,50.0,-100.00,North,-999,-999.0,-999.0,89,0.00,,,0.00,,2013-06-07 05:42:00,
2013-06-06 23:02:00,53.0,51.0,-100.00,North,-999,-999.0,-999.0,92,0.00,,,0.00,,2013-06-07 06:02:00,
2013-06-06 23:12:00,53.0,51.0,-100.00,North,-999,-999.0,-999.0,92,0.00,,,0.00,,2013-06-07 06:12:00,
2013-06-06 23:22:00,53.0,51.0,-100.00,North,-999,-999.0,-999.0,92,0.00,,,0.00,,2013-06-07 06:22:00,
2013-06-06 23:32:00,53.0,51.0,-100.00,North,-999,-999.0,-999.0,92,0.00,,,0.00,,2013-06-07 06:32:00,
2013-06-06 23:42:00,53.0,51.0,-100.00,North,-999,-999.0,-999.0,92,0.00,,,0.00,,2013-06-07 06:42:00,